Salt Lake City International Airport
KSLC : rendu visible

Aérodrome :











RETROUVEZ-NOUS SUR...

 
LOGIN :

S'inscrire | Disclaimer

   EN    FR    IT 

 









Légende :    VFR   VFR Marginal   IFR   IFR Intensif   IFR Très Intensif
Visi : 
Plafond : 
>= 8 km
>= 3000ft
5 à 8 km
1000 à 3000 ft
1500m à 5 km
500 à 1000 ft
800 à 1500m
200 à 500 ft
< 800m
< 200 ft
Symboles :   Orages  Brouillard  Fortes neiges  Fortes précipitations  Vent > 20 kt






- Altitude de l'aérodrome : 4227 ft
- Code IATA : SLC


KSLC - Salt Lake City International

DERNIER METAR :
  • 222254Z 36007KT 10SM FEW030 BKN050 OVC070 06/01 A3024 RMK AO2 SLP240 T00610006

METARs EXPIRÉS :
  • 222154Z 01005KT 10SM SCT032 OVC049 06/01 A3023 RMK AO2 SLP236 T00610006
  • 222123Z 02006KT 10SM BKN030 OVC049 06/01 A3023 RMK AO2 T00610006
  • 222054Z 04004KT 9SM BKN024 OVC055 06/01 A3023 RMK AO2 SLP237 60000 T00560011 56008

TAF KSLC
Valide du 22 à 21h jusqu'au 24 à 00h UTC


222107Z 2221/2324 32005KT P6SM BKN025 OVC050
FM222300 32006KT P6SM SCT050
FM230300 15005KT P6SM SKC
FM231900 32005KT P6SM SCT250



MET'MAP, la Météo Aéronautique d'un coup d'oeil ! - Copyright ORBIFLY Décembre 2007 - Disclaimer

ORBIFLY MET'MAP TEAM :

Programmation & Développement : Alexandra Zaïnal
Conception & Développement : Baudouin d'Aumeries
Co-Programmation & Développement : Marc-Olivier Méhu
Soutien technique & logistique : Manuel Goepfert

Contact : metmap@orbifly.com




SOURCES & CREDITS :

   NOAA       Earth
Advisory